CheckWX is a tool to help pilots better visualize weather data.  It is not intended as a substitute for an official pre-flight weather briefing.

10:54:52 UTC

KBIX TAF
Keesler AFB Airport
Biloxi, Mississippi, USA
TAF KBIX 031000Z 0310/0416 VRB06KT 9999 SCT150 BKN200 QNH2995INS TX22/0320Z TN16/0312Z

Apr-3@
10:00 UTC

Apr-3 @ 10:00 UTC

Apr-4@
16:00 UTC

Apr-4 @ 16:00 UTC

TAF KBIX 031000Z 0310/0416 VRB06KT 9999 SCT150 BKN200 QNH2995INS TX22/0320Z TN16/0312Z
Wind
  • Variable at 6 KTS
Cloud Levels
  • Scattered at 15,000' AGL
  • Broken at 20,000' AGL